Terminal Aerodrome Forecast
Issued by NWS Lake Charles, LA

Home | Current Version | Previous Version | Text Only | Print | Product List | Glossary On
Versions: 1 2 3 4 5 6 7 8 9 10 11 12 13 14 15 16 17 18 19 20 21 22 23 24 25 26 27 28 29 30
805
FTUS44 KLCH 211724
TAFAEX
TAF
KAEX 211724Z 2118/2218 29006KT P6SM FEW050
     FM212000 30008KT P6SM BKN025 BKN050
     FM220500 32003KT 4SM BR BKN008
      TEMPO 2208/2212 1SM BR OVC004
     FM221600 36005KT P6SM BKN025=

USA.gov is the U.S. government's official web portal to all federal, state and local government web resources and services.